Time;durP1;ratioP1;P1;durP2;ratioP2;P2;SDS_P1;SDS_P2;PMS_P1;PMS_P2;Temp;Humidity;BMP_temperature;BMP_pressure;BME280_temperature;BME280_humidity;BME280_pressure;Samples;Min_cycle;Max_cycle;Signal;HPM_P1;HPM_P2
2024/03/21 00:01:40;;;;;;;9.57;5.03;;;4.30;99.90;;;;;;4992690;28;20397;-75
2024/03/21 00:04:06;;;;;;;11.43;5.30;;;4.30;99.90;;;;;;4992014;28;20040;-75
2024/03/21 00:06:32;;;;;;;9.30;6.07;;;4.30;99.90;;;;;;4988464;28;20041;-75
2024/03/21 00:08:57;;;;;;;9.07;5.53;;;4.30;99.90;;;;;;4981529;28;20029;-75
2024/03/21 00:11:23;;;;;;;11.00;5.63;;;4.30;99.90;;;;;;4992362;28;20507;-75
2024/03/21 00:13:49;;;;;;;7.63;5.05;;;4.20;99.90;;;;;;4991714;28;20019;-75
2024/03/21 00:16:14;;;;;;;8.13;4.97;;;4.20;99.90;;;;;;4992347;28;20146;-75
2024/03/21 00:18:41;;;;;;;9.77;6.28;;;4.20;99.90;;;;;;4994683;28;20077;-75
2024/03/21 00:21:07;;;;;;;10.95;6.28;;;4.20;99.90;;;;;;4995709;28;20589;-75
2024/03/21 00:23:33;;;;;;;10.98;5.32;;;4.20;99.90;;;;;;4991688;28;20108;-75
2024/03/21 00:26:01;;;;;;;10.27;5.60;;;4.10;99.90;;;;;;4992225;28;20022;-75
2024/03/21 00:28:28;;;;;;;15.27;5.00;;;4.10;99.90;;;;;;4991133;28;20117;-75
2024/03/21 00:30:56;;;;;;;13.55;6.00;;;4.10;99.90;;;;;;4992233;28;20497;-75
2024/03/21 00:33:22;;;;;;;10.73;6.63;;;4.10;99.90;;;;;;4991781;28;20018;-75
2024/03/21 00:35:48;;;;;;;11.43;6.20;;;4.10;99.90;;;;;;4992411;28;20048;-74
2024/03/21 00:38:13;;;;;;;12.10;5.30;;;4.20;99.90;;;;;;4989328;28;20038;-75
2024/03/21 00:40:39;;;;;;;8.95;5.05;;;4.10;99.90;;;;;;4990827;28;20037;-75
2024/03/21 00:43:05;;;;;;;11.10;4.75;;;4.10;99.90;;;;;;4995527;28;20030;-74
2024/03/21 00:45:30;;;;;;;12.00;6.03;;;4.00;99.90;;;;;;4996147;28;20061;-75
2024/03/21 00:47:56;;;;;;;15.77;7.32;;;4.10;99.90;;;;;;4995713;28;20485;-75
2024/03/21 00:50:22;;;;;;;11.57;6.65;;;4.00;99.90;;;;;;4994723;28;20440;-75
2024/03/21 00:52:48;;;;;;;8.70;5.78;;;4.10;99.90;;;;;;4995588;28;20417;-74
2024/03/21 00:55:13;;;;;;;12.88;6.43;;;3.90;99.90;;;;;;5001604;28;20060;-75
2024/03/21 00:57:39;;;;;;;10.77;5.57;;;3.90;99.90;;;;;;4999054;28;20026;-75
2024/03/21 01:00:07;;;;;;;10.35;6.15;;;3.90;99.90;;;;;;4995850;28;20048;-75
2024/03/21 01:02:34;;;;;;;11.18;6.47;;;3.80;99.90;;;;;;4994087;28;20026;-75
2024/03/21 01:05:00;;;;;;;15.52;6.93;;;3.80;99.90;;;;;;4994540;28;20497;-74
2024/03/21 01:07:27;;;;;;;8.68;5.57;;;3.80;99.90;;;;;;4995625;28;20049;-75
2024/03/21 01:09:53;;;;;;;10.55;6.35;;;3.80;99.90;;;;;;4995476;28;20058;-75
2024/03/21 01:12:19;;;;;;;14.57;7.03;;;3.80;99.90;;;;;;4995046;28;20486;-75
2024/03/21 01:14:45;;;;;;;11.38;6.82;;;3.70;99.90;;;;;;4994530;28;20025;-75
2024/03/21 01:17:11;;;;;;;14.63;6.88;;;3.80;99.90;;;;;;4994211;28;20026;-75
2024/03/21 01:19:37;;;;;;;13.80;7.05;;;3.80;99.90;;;;;;4995487;28;20394;-76
2024/03/21 01:22:03;;;;;;;10.30;6.43;;;3.70;99.90;;;;;;4994992;28;20030;-75
2024/03/21 01:24:29;;;;;;;8.07;5.53;;;3.70;99.90;;;;;;4995548;28;20375;-75
2024/03/21 01:26:54;;;;;;;10.15;6.90;;;3.80;99.90;;;;;;4995252;28;20041;-75
2024/03/21 01:29:20;;;;;;;12.60;6.63;;;3.90;99.90;;;;;;4993984;28;20030;-75
2024/03/21 01:31:46;;;;;;;10.23;5.68;;;3.80;99.90;;;;;;4994926;28;20022;-75
2024/03/21 01:34:11;;;;;;;9.45;6.07;;;3.70;99.90;;;;;;4993985;28;20018;-75
2024/03/21 01:36:45;;;;;;;13.90;6.80;;;3.70;99.90;;;;;;4995145;28;20022;-75
2024/03/21 01:39:12;;;;;;;10.88;6.65;;;3.70;99.90;;;;;;4993809;28;20031;-75
2024/03/21 01:41:37;;;;;;;10.95;6.50;;;3.60;99.90;;;;;;4995109;28;20041;-75
2024/03/21 01:44:03;;;;;;;13.73;6.25;;;3.60;99.90;;;;;;4994587;28;20035;-75
2024/03/21 01:46:29;;;;;;;9.85;6.25;;;3.60;99.90;;;;;;4993827;28;20030;-75
2024/03/21 01:48:55;;;;;;;11.48;6.50;;;3.60;99.90;;;;;;4993706;28;20093;-75
2024/03/21 01:51:25;;;;;;;11.25;6.30;;;3.60;99.90;;;;;;4995080;28;20022;-75
2024/03/21 01:53:55;;;;;;;9.10;6.13;;;3.50;99.90;;;;;;4994343;28;20027;-74
2024/03/21 01:56:22;;;;;;;13.45;5.55;;;3.50;99.90;;;;;;4994934;28;20445;-75
2024/03/21 01:58:47;;;;;;;13.77;6.93;;;3.50;99.90;;;;;;4994922;28;20054;-75
2024/03/21 02:01:19;;;;;;;11.52;6.72;;;3.50;99.90;;;;;;4993529;28;20089;-75
2024/03/21 02:03:45;;;;;;;9.82;5.38;;;3.50;99.90;;;;;;4994167;28;20022;-75
2024/03/21 02:06:11;;;;;;;11.75;5.72;;;3.50;99.90;;;;;;4993425;28;20027;-75
2024/03/21 02:08:38;;;;;;;9.77;5.90;;;3.50;99.90;;;;;;5002004;28;20053;-75
2024/03/21 02:11:03;;;;;;;10.75;6.35;;;3.40;99.90;;;;;;4996018;28;20045;-75
2024/03/21 02:13:29;;;;;;;13.45;6.78;;;3.40;99.90;;;;;;4992720;28;20031;-75
2024/03/21 02:15:55;;;;;;;11.73;6.50;;;3.40;99.90;;;;;;4993179;28;20022;-75
2024/03/21 02:18:21;;;;;;;11.02;6.50;;;3.40;99.90;;;;;;4994551;28;20540;-75
2024/03/21 02:20:47;;;;;;;11.93;6.50;;;3.40;99.90;;;;;;4993018;28;20061;-76
2024/03/21 02:23:12;;;;;;;12.13;5.72;;;3.40;99.90;;;;;;4999348;28;20023;-75
2024/03/21 02:25:38;;;;;;;11.45;6.07;;;3.30;99.90;;;;;;5001505;28;20113;-74
2024/03/21 02:28:06;;;;;;;11.30;6.22;;;3.40;99.90;;;;;;5003917;28;20034;-76
2024/03/21 02:30:32;;;;;;;12.77;6.43;;;3.40;99.90;;;;;;5000955;28;20027;-75
2024/03/21 02:32:58;;;;;;;12.93;6.68;;;3.30;99.90;;;;;;4993934;28;20019;-75
2024/03/21 02:35:24;;;;;;;10.00;6.03;;;3.30;99.90;;;;;;4992842;28;20034;-75
2024/03/21 02:37:49;;;;;;;9.60;6.40;;;3.20;99.90;;;;;;4993943;28;20026;-75
2024/03/21 02:40:15;;;;;;;9.68;5.63;;;3.20;99.90;;;;;;4993908;28;20049;-75
2024/03/21 02:42:41;;;;;;;10.20;6.18;;;3.10;99.90;;;;;;4992289;28;20127;-75
2024/03/21 02:45:07;;;;;;;11.27;4.97;;;3.10;99.90;;;;;;4994062;28;20034;-76
2024/03/21 02:47:34;;;;;;;10.15;5.20;;;3.00;99.90;;;;;;4993763;28;20513;-75
2024/03/21 02:50:00;;;;;;;9.15;5.60;;;3.00;99.90;;;;;;4992286;28;20395;-75
2024/03/21 02:52:25;;;;;;;10.68;5.55;;;3.00;99.90;;;;;;4992130;28;20076;-75
2024/03/21 02:54:51;;;;;;;10.38;5.10;;;2.90;99.90;;;;;;4993805;28;20034;-76
2024/03/21 02:57:16;;;;;;;8.27;4.47;;;2.90;99.90;;;;;;4993646;28;20483;-75
2024/03/21 02:59:42;;;;;;;9.23;5.03;;;2.90;99.90;;;;;;4992124;28;20033;-75
2024/03/21 03:02:09;;;;;;;9.30;5.32;;;2.90;99.90;;;;;;4992857;28;20084;-75
2024/03/21 03:04:34;;;;;;;6.35;4.25;;;2.80;99.90;;;;;;4993402;28;20026;-75
2024/03/21 03:07:00;;;;;;;7.68;4.88;;;2.80;99.90;;;;;;4993424;28;20460;-75
2024/03/21 03:09:26;;;;;;;7.50;4.40;;;2.80;99.90;;;;;;4993303;28;20395;-75
2024/03/21 03:11:51;;;;;;;8.55;5.35;;;2.80;99.90;;;;;;4992941;28;20077;-75
2024/03/21 03:14:17;;;;;;;8.77;5.05;;;2.80;99.90;;;;;;4993460;28;20050;-75
2024/03/21 03:16:43;;;;;;;7.55;4.97;;;2.80;99.90;;;;;;4993323;28;20049;-75
2024/03/21 03:19:08;;;;;;;7.35;4.25;;;2.80;99.90;;;;;;4993263;28;20022;-75
2024/03/21 03:21:34;;;;;;;8.90;5.65;;;2.80;99.90;;;;;;5001364;28;20035;-75
2024/03/21 03:23:59;;;;;;;11.50;6.07;;;2.80;99.90;;;;;;4995704;28;20031;-74
2024/03/21 03:26:25;;;;;;;8.93;5.38;;;2.90;99.90;;;;;;4993119;28;20033;-75
2024/03/21 03:28:51;;;;;;;16.50;6.05;;;2.80;99.90;;;;;;4993149;28;20030;-75
2024/03/21 03:31:16;;;;;;;9.77;5.03;;;2.90;99.90;;;;;;4993070;28;20023;-75
2024/03/21 03:36:27;;;;;;;12.57;5.30;;;2.90;99.90;;;;;;4974781;28;20033;-75
2024/03/21 03:38:53;;;;;;;15.70;6.55;;;2.90;99.90;;;;;;4987034;28;20049;-75
2024/03/21 03:41:19;;;;;;;9.45;6.10;;;2.90;99.90;;;;;;4983473;28;20026;-75
2024/03/21 03:43:45;;;;;;;11.27;7.00;;;3.00;99.90;;;;;;4995097;28;20034;-75
2024/03/21 03:46:10;;;;;;;13.32;7.40;;;2.80;99.90;;;;;;4993401;28;20025;-75
2024/03/21 03:48:36;;;;;;;9.15;5.38;;;2.90;99.90;;;;;;4986515;28;20037;-75
2024/03/21 03:51:01;;;;;;;9.35;5.63;;;2.90;99.90;;;;;;4992733;28;20022;-75
2024/03/21 03:53:27;;;;;;;9.63;5.22;;;2.90;99.90;;;;;;4992291;28;20522;-75
2024/03/21 03:55:53;;;;;;;13.02;5.60;;;2.90;99.90;;;;;;4992613;28;20018;-74
2024/03/21 03:58:22;;;;;;;9.90;6.20;;;3.00;99.90;;;;;;4991335;28;20401;-74
2024/03/21 04:00:57;;;;;;;18.38;6.40;;;2.90;99.90;;;;;;4984023;28;20033;-75
2024/03/21 04:03:23;;;;;;;15.82;7.10;;;3.00;99.90;;;;;;4952228;29;20229;-75
2024/03/21 04:05:56;;;;;;;22.42;9.18;;;3.00;99.90;;;;;;4953743;28;20494;-75
2024/03/21 04:08:21;;;;;;;13.40;7.50;;;3.00;99.90;;;;;;4968727;28;20031;-75
2024/03/21 04:10:48;;;;;;;12.98;7.22;;;3.00;99.90;;;;;;4953656;29;20094;-75
2024/03/21 04:13:14;;;;;;;16.42;6.93;;;3.10;99.90;;;;;;4967933;28;20031;-74
2024/03/21 04:15:40;;;;;;;18.40;8.13;;;3.10;99.90;;;;;;4953689;28;20028;-75
2024/03/21 04:18:06;;;;;;;14.93;7.68;;;3.20;99.90;;;;;;4952629;28;20122;-75
2024/03/21 04:20:31;;;;;;;21.13;8.93;;;3.10;99.90;;;;;;4953658;29;20106;-75
2024/03/21 04:22:57;;;;;;;19.77;8.23;;;3.20;99.90;;;;;;4953232;29;20102;-75
2024/03/21 04:25:23;;;;;;;15.07;7.93;;;3.20;99.90;;;;;;4952419;29;20409;-75
2024/03/21 04:27:48;;;;;;;16.95;8.13;;;3.10;99.90;;;;;;4953594;28;20027;-74
2024/03/21 04:30:14;;;;;;;18.67;7.95;;;3.00;99.90;;;;;;4981797;28;20034;-75
2024/03/21 04:32:39;;;;;;;17.13;8.70;;;3.10;99.90;;;;;;4994749;28;20042;-75
2024/03/21 04:35:05;;;;;;;15.57;8.25;;;3.20;99.90;;;;;;4998098;28;20022;-75
2024/03/21 04:37:31;;;;;;;16.50;8.10;;;3.10;99.90;;;;;;4991057;28;20444;-75
2024/03/21 04:39:56;;;;;;;17.48;6.72;;;3.10;99.90;;;;;;4992112;28;20026;-75
2024/03/21 04:42:22;;;;;;;13.43;6.40;;;3.10;99.90;;;;;;4991792;28;20223;-75
2024/03/21 04:44:48;;;;;;;14.00;6.88;;;3.10;99.90;;;;;;4992282;28;20026;-75
2024/03/21 04:47:13;;;;;;;11.35;6.35;;;3.20;99.90;;;;;;4990835;28;20034;-75
2024/03/21 04:49:39;;;;;;;10.52;5.82;;;3.20;99.90;;;;;;4991887;28;20030;-75
2024/03/21 04:52:05;;;;;;;10.40;5.53;;;3.10;99.90;;;;;;4991575;28;20037;-75
2024/03/21 04:54:31;;;;;;;14.70;6.85;;;3.10;99.90;;;;;;4992129;28;20133;-75
2024/03/21 04:56:57;;;;;;;12.43;7.30;;;3.20;99.90;;;;;;4992123;28;20646;-75
2024/03/21 04:59:25;;;;;;;13.55;7.10;;;3.00;99.90;;;;;;4990650;28;20486;-75
2024/03/21 05:01:52;;;;;;;12.23;7.07;;;3.00;99.90;;;;;;4980075;28;20054;-76
2024/03/21 05:04:18;;;;;;;11.25;6.32;;;3.10;99.90;;;;;;4972665;28;20026;-75
2024/03/21 05:06:44;;;;;;;13.07;6.95;;;3.10;99.90;;;;;;4972440;28;20058;-75
2024/03/21 05:09:09;;;;;;;17.15;7.68;;;3.10;99.90;;;;;;4972602;28;20027;-75
2024/03/21 05:11:35;;;;;;;14.23;7.15;;;3.10;99.90;;;;;;4971303;28;20031;-75
2024/03/21 05:14:01;;;;;;;13.63;7.07;;;3.10;99.90;;;;;;4972000;28;20065;-75
2024/03/21 05:16:28;;;;;;;19.20;7.90;;;3.20;99.90;;;;;;4971254;28;20114;-75
2024/03/21 05:18:54;;;;;;;11.65;6.25;;;3.20;99.90;;;;;;4972672;28;20058;-75
2024/03/21 05:21:20;;;;;;;9.55;5.65;;;3.20;99.90;;;;;;4972361;28;20026;-76
2024/03/21 05:23:45;;;;;;;12.70;5.55;;;3.20;99.90;;;;;;4973021;28;20033;-75
2024/03/21 05:26:11;;;;;;;16.90;6.82;;;3.30;99.90;;;;;;4975927;28;20023;-75
2024/03/21 05:28:37;;;;;;;12.75;6.43;;;3.20;99.90;;;;;;4973063;28;20034;-75
2024/03/21 05:31:19;;;;;;;12.02;6.05;;;3.40;99.90;;;;;;4972158;28;20518;-75
2024/03/21 05:33:44;;;;;;;13.73;6.18;;;3.40;99.90;;;;;;4987091;28;20026;-74
2024/03/21 05:36:10;;;;;;;11.23;5.82;;;4.40;99.90;;;;;;4971882;28;20030;-75
2024/03/21 05:38:36;;;;;;;13.73;6.82;;;3.90;99.90;;;;;;4982361;28;20026;-75
2024/03/21 05:41:02;;;;;;;16.50;8.18;;;3.90;99.90;;;;;;4985583;28;20035;-76
2024/03/21 05:43:27;;;;;;;14.90;6.32;;;3.70;99.90;;;;;;4994655;28;20029;-75
2024/03/21 05:45:53;;;;;;;12.32;6.32;;;3.70;99.90;;;;;;4998718;28;20030;-75
2024/03/21 05:48:18;;;;;;;10.90;6.15;;;3.70;99.90;;;;;;4999638;28;20057;-75
2024/03/21 05:50:44;;;;;;;12.73;6.68;;;3.70;99.90;;;;;;4993591;28;20030;-75
2024/03/21 05:53:10;;;;;;;13.65;7.28;;;3.70;99.90;;;;;;4994366;28;20026;-75
2024/03/21 05:55:35;;;;;;;18.73;7.88;;;3.70;99.90;;;;;;4993545;28;20060;-74
2024/03/21 05:58:01;;;;;;;11.75;6.50;;;3.80;99.90;;;;;;4994811;28;20018;-75
2024/03/21 06:00:26;;;;;;;12.40;7.60;;;3.80;99.90;;;;;;4993506;28;20456;-75
2024/03/21 06:02:52;;;;;;;16.88;8.35;;;3.80;99.90;;;;;;4992997;28;20035;-75
2024/03/21 06:05:18;;;;;;;12.75;7.80;;;3.90;99.90;;;;;;4994639;28;20030;-75
2024/03/21 06:07:43;;;;;;;11.73;6.47;;;3.90;99.90;;;;;;4994533;28;20038;-75
2024/03/21 06:10:09;;;;;;;13.02;6.07;;;4.00;99.90;;;;;;4994277;28;20026;-76
2024/03/21 06:12:35;;;;;;;9.65;6.70;;;4.00;99.90;;;;;;4992819;28;20401;-75
2024/03/21 06:15:00;;;;;;;13.68;6.70;;;4.20;99.90;;;;;;4993310;28;20023;-75
2024/03/21 06:17:27;;;;;;;13.65;7.25;;;4.20;99.90;;;;;;4994419;28;20022;-76
2024/03/21 06:19:53;;;;;;;12.18;6.13;;;4.30;99.90;;;;;;4994399;28;20101;-75
2024/03/21 06:22:18;;;;;;;11.38;6.45;;;4.40;99.90;;;;;;4992612;28;20477;-76
2024/03/21 06:24:44;;;;;;;11.57;5.85;;;4.40;99.90;;;;;;4994156;28;20109;-75
2024/03/21 06:27:09;;;;;;;10.57;6.57;;;4.50;99.90;;;;;;4994233;28;20497;-76
2024/03/21 06:29:35;;;;;;;10.95;7.05;;;4.50;99.90;;;;;;4994125;28;20037;-75
2024/03/21 06:32:01;;;;;;;12.07;7.00;;;4.50;99.90;;;;;;4993902;28;20066;-75
2024/03/21 06:34:26;;;;;;;14.25;7.07;;;4.60;99.90;;;;;;4992698;28;20026;-75
2024/03/21 06:36:52;;;;;;;16.42;7.60;;;4.60;99.90;;;;;;4984264;28;20033;-75
2024/03/21 06:39:19;;;;;;;17.88;8.40;;;4.60;99.90;;;;;;4984455;28;20412;-75
2024/03/21 06:41:45;;;;;;;20.15;8.13;;;4.70;99.90;;;;;;4993653;28;20077;-76
2024/03/21 06:44:10;;;;;;;12.13;7.38;;;4.70;99.90;;;;;;4992640;28;20026;-76
2024/03/21 06:46:40;;;;;;;15.63;6.70;;;4.80;99.90;;;;;;4985580;28;20030;-75
2024/03/21 06:49:07;;;;;;;10.60;6.22;;;4.90;99.90;;;;;;4985877;28;20378;-76
2024/03/21 06:51:33;;;;;;;11.90;7.32;;;4.90;99.90;;;;;;4993860;28;20018;-75
2024/03/21 06:53:58;;;;;;;14.10;7.40;;;5.10;99.90;;;;;;4991912;28;20073;-75
2024/03/21 06:56:25;;;;;;;13.07;6.97;;;5.10;99.90;;;;;;4993783;28;20028;-75
2024/03/21 06:58:51;;;;;;;14.82;7.93;;;5.20;99.90;;;;;;4979810;28;20022;-76
2024/03/21 07:01:18;;;;;;;11.45;7.03;;;5.30;99.90;;;;;;4984896;28;20034;-76
2024/03/21 07:03:44;;;;;;;11.50;6.43;;;5.30;99.90;;;;;;4982310;28;20548;-75
2024/03/21 07:06:10;;;;;;;17.98;7.05;;;5.40;99.90;;;;;;4990081;28;20030;-76
2024/03/21 07:08:35;;;;;;;11.25;6.32;;;5.50;99.90;;;;;;4995683;28;20037;-75
2024/03/21 07:11:01;;;;;;;12.68;6.93;;;5.60;99.90;;;;;;4978208;28;20027;-75
2024/03/21 07:13:27;;;;;;;14.60;7.65;;;5.80;99.90;;;;;;4971023;28;20370;-76
2024/03/21 07:15:52;;;;;;;13.27;7.50;;;7.10;99.90;;;;;;4986444;28;20022;-75
2024/03/21 07:18:18;;;;;;;18.10;8.02;;;6.90;99.90;;;;;;4995231;28;20069;-75
2024/03/21 07:20:43;;;;;;;13.98;8.70;;;6.70;99.90;;;;;;4995255;28;20038;-76
2024/03/21 07:23:09;;;;;;;17.58;9.32;;;6.70;99.90;;;;;;4992674;28;20034;-76
2024/03/21 07:25:36;;;;;;;18.30;8.63;;;6.60;99.90;;;;;;4991983;28;20441;-76
2024/03/21 07:28:03;;;;;;;14.77;7.38;;;6.60;99.90;;;;;;4991919;28;20489;-76
2024/03/21 07:30:29;;;;;;;12.27;7.28;;;9.20;99.90;;;;;;4993029;28;20045;-76
2024/03/21 07:32:55;;;;;;;13.15;7.72;;;10.10;99.90;;;;;;4991363;28;20030;-76
2024/03/21 07:35:20;;;;;;;11.82;6.80;;;10.00;98.80;;;;;;4993192;28;20544;-76
2024/03/21 07:37:46;;;;;;;15.30;7.03;;;9.40;98.80;;;;;;4992014;28;20541;-76
2024/03/21 07:40:13;;;;;;;9.20;6.43;;;9.10;99.90;;;;;;4991890;28;20382;-76
2024/03/21 07:42:38;;;;;;;9.95;5.43;;;8.60;99.90;;;;;;4991370;28;20053;-76
2024/03/21 07:45:08;;;;;;;12.93;5.45;;;8.30;99.90;;;;;;4991931;28;20485;-76
2024/03/21 07:47:34;;;;;;;12.20;5.97;;;8.10;99.90;;;;;;4991429;28;20022;-77
2024/03/21 07:49:59;;;;;;;10.65;6.20;;;8.00;99.90;;;;;;4992790;28;20031;-77
2024/03/21 07:52:25;;;;;;;9.38;6.15;;;7.90;99.90;;;;;;4991353;28;20026;-75
2024/03/21 07:54:51;;;;;;;11.20;7.18;;;7.90;99.90;;;;;;4992942;28;20493;-76
2024/03/21 07:57:18;;;;;;;10.70;6.05;;;8.00;99.90;;;;;;4993057;28;20421;-76
2024/03/21 07:59:44;;;;;;;11.27;6.03;;;8.20;99.90;;;;;;4991651;28;20494;-76
2024/03/21 08:02:10;;;;;;;12.02;6.22;;;8.40;99.90;;;;;;4991364;28;20041;-76
2024/03/21 08:04:35;;;;;;;12.05;6.20;;;8.30;99.90;;;;;;4991501;28;20124;-75
2024/03/21 08:07:01;;;;;;;11.43;6.40;;;8.40;99.90;;;;;;4993664;28;20074;-74
2024/03/21 08:09:27;;;;;;;12.05;7.03;;;8.50;99.90;;;;;;4993164;28;20137;-74
2024/03/21 08:11:53;;;;;;;11.57;5.97;;;8.90;99.90;;;;;;4998668;28;20062;-75
2024/03/21 08:14:19;;;;;;;12.70;6.03;;;9.10;99.90;;;;;;4995500;28;20174;-73
2024/03/21 08:16:44;;;;;;;14.93;6.90;;;9.30;99.90;;;;;;4994336;28;20030;-74
2024/03/21 08:19:10;;;;;;;18.48;8.65;;;9.50;99.90;;;;;;4995069;28;20073;-74
2024/03/21 08:21:36;;;;;;;15.27;7.65;;;9.60;99.90;;;;;;4995699;28;20022;-74
2024/03/21 08:24:01;;;;;;;19.00;7.75;;;9.90;99.90;;;;;;4992954;28;20026;-74
2024/03/21 08:26:27;;;;;;;13.15;6.47;;;10.20;99.90;;;;;;4996003;28;20022;-74
2024/03/21 08:28:52;;;;;;;10.65;5.63;;;10.40;99.90;;;;;;4996227;28;20046;-74
2024/03/21 08:31:18;;;;;;;13.35;5.95;;;10.40;99.90;;;;;;4994621;28;20141;-74
2024/03/21 08:33:44;;;;;;;7.20;4.63;;;10.60;99.90;;;;;;4993358;28;20026;-75
2024/03/21 08:36:09;;;;;;;8.90;6.60;;;10.90;99.20;;;;;;4993725;28;20421;-76
2024/03/21 08:38:35;;;;;;;8.38;4.63;;;11.20;98.20;;;;;;4993030;28;20465;-76
2024/03/21 08:41:02;;;;;;;8.75;4.90;;;11.30;97.90;;;;;;4994478;28;20053;-74
2024/03/21 08:43:27;;;;;;;7.20;5.22;;;11.50;98.70;;;;;;4992968;28;20027;-74
2024/03/21 08:45:53;;;;;;;7.93;4.78;;;11.60;96.90;;;;;;4991307;28;20037;-75
2024/03/21 08:48:19;;;;;;;7.03;4.47;;;11.70;95.30;;;;;;4991753;28;20436;-76
2024/03/21 08:50:47;;;;;;;8.52;5.72;;;12.00;96.00;;;;;;4992688;28;20025;-75
2024/03/21 08:53:14;;;;;;;10.02;5.65;;;12.20;94.90;;;;;;4993019;28;20026;-75
2024/03/21 08:55:40;;;;;;;6.60;4.90;;;12.30;95.30;;;;;;4993310;28;20044;-75
2024/03/21 08:58:06;;;;;;;8.40;4.93;;;12.50;95.50;;;;;;4993613;28;20520;-76
2024/03/21 09:00:32;;;;;;;9.05;4.63;;;12.70;93.40;;;;;;4998278;28;20065;-75
2024/03/21 09:03:02;;;;;;;9.20;5.47;;;12.90;93.10;;;;;;4997240;28;20018;-76
2024/03/21 09:05:28;;;;;;;8.50;4.97;;;13.00;92.50;;;;;;4997766;28;20032;-75
2024/03/21 09:07:54;;;;;;;8.82;5.05;;;13.10;91.30;;;;;;4997329;28;20042;-76
2024/03/21 09:10:20;;;;;;;8.27;5.38;;;13.30;91.40;;;;;;4996210;28;20409;-76
2024/03/21 09:12:46;;;;;;;5.95;4.10;;;13.40;90.00;;;;;;4995549;28;20022;-75
2024/03/21 09:15:17;;;;;;;8.45;4.95;;;13.40;89.40;;;;;;4995770;28;20023;-75
2024/03/21 09:17:44;;;;;;;7.18;4.90;;;13.60;89.40;;;;;;4995780;28;20053;-75
2024/03/21 09:20:10;;;;;;;7.45;3.83;;;13.80;87.80;;;;;;4996872;28;20031;-75
2024/03/21 09:22:36;;;;;;;7.20;4.55;;;13.90;85.70;;;;;;4994546;28;20037;-74
2024/03/21 09:25:03;;;;;;;8.10;4.95;;;13.90;82.90;;;;;;4995419;28;20026;-75
2024/03/21 09:27:28;;;;;;;6.57;4.63;;;14.00;79.80;;;;;;4995186;28;20061;-76
2024/03/21 09:29:54;;;;;;;6.63;4.22;;;14.10;80.10;;;;;;4995251;28;20508;-76
2024/03/21 09:32:20;;;;;;;7.53;4.53;;;14.10;78.00;;;;;;4994916;28;20100;-76
2024/03/21 09:34:51;;;;;;;11.63;4.63;;;14.20;77.70;;;;;;4994532;28;20026;-76
2024/03/21 09:37:18;;;;;;;7.80;4.38;;;14.10;77.00;;;;;;4994366;28;20026;-76
2024/03/21 09:39:43;;;;;;;6.97;4.03;;;14.20;78.20;;;;;;4995429;28;20030;-75
2024/03/21 09:42:18;;;;;;;7.32;4.70;;;14.40;76.90;;;;;;4995086;28;20038;-75
2024/03/21 09:44:49;;;;;;;7.45;4.70;;;14.40;76.30;;;;;;4995193;28;20493;-75
2024/03/21 09:47:27;;;;;;;8.13;5.10;;;14.50;76.40;;;;;;4995614;28;20120;-76
2024/03/21 09:49:53;;;;;;;6.53;4.10;;;14.40;73.30;;;;;;4995804;28;20077;-76
2024/03/21 09:52:18;;;;;;;7.45;4.80;;;14.40;76.00;;;;;;4995293;28;20019;-76
2024/03/21 09:54:44;;;;;;;8.50;4.78;;;14.40;75.90;;;;;;4995686;28;20029;-75
2024/03/21 09:57:12;;;;;;;8.30;5.40;;;14.40;76.30;;;;;;4995604;28;20022;-75
2024/03/21 09:59:38;;;;;;;8.73;5.00;;;14.50;75.90;;;;;;4995720;28;20022;-75
2024/03/21 10:02:12;;;;;;;8.57;5.40;;;14.60;74.60;;;;;;4993974;28;20045;-76
2024/03/21 10:04:49;;;;;;;10.20;4.05;;;14.60;74.80;;;;;;4994795;28;20034;-76
2024/03/21 10:07:23;;;;;;;7.85;4.57;;;14.70;74.80;;;;;;4994291;28;20504;-75
2024/03/21 10:09:56;;;;;;;11.10;4.75;;;14.80;73.50;;;;;;4995398;28;20030;-75
2024/03/21 10:12:23;;;;;;;8.50;4.65;;;14.80;71.90;;;;;;4994826;28;20019;-75
2024/03/21 10:14:55;;;;;;;5.13;3.25;;;14.80;73.90;;;;;;4995871;28;20037;-75
2024/03/21 10:17:24;;;;;;;7.32;4.10;;;14.90;76.60;;;;;;4990557;28;20632;-73
2024/03/21 10:19:50;;;;;;;7.30;4.43;;;15.20;76.20;;;;;;4969923;28;20054;-74
2024/03/21 10:22:21;;;;;;;8.02;4.97;;;15.40;75.10;;;;;;4990858;28;20027;-75
2024/03/21 10:24:54;;;;;;;4.68;4.00;;;15.60;73.70;;;;;;4978071;28;20118;-76
2024/03/21 10:27:22;;;;;;;7.22;4.22;;;15.70;71.40;;;;;;4987310;28;20037;-75
2024/03/21 10:29:48;;;;;;;8.30;4.38;;;15.70;70.50;;;;;;4977591;28;20050;-76
2024/03/21 10:32:21;;;;;;;5.97;4.55;;;15.70;69.50;;;;;;4982980;28;20018;-76
2024/03/21 10:34:54;;;;;;;9.90;4.95;;;15.60;69.90;;;;;;4986736;28;20019;-76
2024/03/21 10:37:20;;;;;;;7.60;4.90;;;15.70;69.20;;;;;;4973700;28;20022;-77
2024/03/21 10:39:47;;;;;;;5.60;3.35;;;15.70;69.70;;;;;;4971085;28;20018;-76
2024/03/21 10:42:35;;;;;;;5.13;3.65;;;15.70;70.60;;;;;;4970156;28;20034;-75
2024/03/21 10:45:05;;;;;;;11.07;4.47;;;15.90;71.40;;;;;;4971632;28;20034;-76
2024/03/21 10:47:31;;;;;;;7.18;3.33;;;15.80;70.90;;;;;;4977059;28;20034;-74
2024/03/21 10:49:57;;;;;;;6.63;3.63;;;15.80;71.40;;;;;;4984939;28;20551;-74
2024/03/21 10:52:23;;;;;;;5.80;3.63;;;15.80;72.20;;;;;;4991678;28;20045;-74
2024/03/21 10:54:54;;;;;;;7.63;3.97;;;15.70;72.20;;;;;;4982544;28;20489;-75
2024/03/21 10:57:24;;;;;;;6.93;4.20;;;15.80;72.50;;;;;;4968932;28;20019;-75
2024/03/21 11:00:06;;;;;;;8.32;4.13;;;15.90;72.40;;;;;;4996608;28;20026;-74
2024/03/21 11:02:32;;;;;;;9.02;4.13;;;15.90;72.30;;;;;;4980190;28;20027;-74
2024/03/21 11:05:09;;;;;;;6.47;3.95;;;15.90;72.20;;;;;;4972868;28;20374;-74
2024/03/21 11:07:36;;;;;;;8.00;5.22;;;16.00;72.20;;;;;;4982282;28;20039;-74
2024/03/21 11:10:03;;;;;;;5.53;3.95;;;16.10;70.90;;;;;;4989010;28;20503;-74
2024/03/21 11:12:30;;;;;;;10.20;3.97;;;16.10;70.80;;;;;;4989846;28;20030;-74
2024/03/21 11:14:55;;;;;;;7.57;3.58;;;16.10;70.70;;;;;;4992101;28;20425;-77
2024/03/21 11:17:21;;;;;;;7.97;4.50;;;16.00;70.90;;;;;;4981519;28;20093;-76
2024/03/21 11:19:50;;;;;;;5.55;3.75;;;16.00;70.30;;;;;;4981751;28;20069;-75
2024/03/21 11:22:16;;;;;;;8.13;4.20;;;15.90;70.30;;;;;;4986777;28;20522;-75
2024/03/21 11:24:43;;;;;;;10.90;3.95;;;15.90;70.20;;;;;;4979159;28;20063;-76
2024/03/21 11:27:18;;;;;;;12.10;4.78;;;16.00;69.60;;;;;;4978155;28;20041;-75
2024/03/21 11:29:45;;;;;;;;;;;15.90;70.50;;;;;;4974844;28;20036;-76
2024/03/21 11:32:11;;;;;;;4.85;3.70;;;15.60;70.00;;;;;;4987099;28;20379;-75
2024/03/21 11:34:40;;;;;;;9.35;5.03;;;15.60;68.00;;;;;;4985641;28;20026;-76
2024/03/21 11:37:12;;;;;;;7.63;4.68;;;15.60;70.10;;;;;;4985488;28;20029;-76
2024/03/21 11:39:39;;;;;;;8.80;4.30;;;15.50;69.50;;;;;;4978182;28;20374;-75
2024/03/21 11:42:09;;;;;;;5.88;3.83;;;15.40;70.30;;;;;;4992213;28;20030;-74
2024/03/21 11:44:41;;;;;;;8.75;4.53;;;15.50;69.20;;;;;;4984365;28;20018;-75
2024/03/21 11:47:16;;;;;;;7.88;4.20;;;15.50;68.90;;;;;;4984773;28;20087;-74
2024/03/21 11:49:49;;;;;;;7.57;4.65;;;15.40;68.90;;;;;;4991605;28;20064;-76
2024/03/21 11:52:16;;;;;;;8.23;4.55;;;15.40;69.10;;;;;;4992141;28;20040;-74
2024/03/21 11:54:43;;;;;;;6.03;3.92;;;15.40;69.40;;;;;;4992816;28;20077;-76
2024/03/21 11:57:12;;;;;;;7.35;3.83;;;15.40;69.20;;;;;;4992693;28;20077;-75
2024/03/21 11:59:40;;;;;;;6.85;4.22;;;15.40;69.10;;;;;;4991488;28;20027;-75
2024/03/21 12:02:14;;;;;;;7.47;4.18;;;15.50;68.20;;;;;;4984240;28;20081;-75
2024/03/21 12:04:40;;;;;;;8.25;4.53;;;15.40;67.30;;;;;;4989215;28;20078;-75
2024/03/21 12:07:10;;;;;;;10.60;4.25;;;15.60;67.20;;;;;;4973005;28;20074;-75
2024/03/21 12:09:36;;;;;;;10.63;4.45;;;15.60;66.50;;;;;;4973387;28;20485;-75
2024/03/21 12:12:02;;;;;;;5.70;3.75;;;15.60;65.10;;;;;;4972775;28;20023;-75
2024/03/21 12:14:28;;;;;;;8.30;4.95;;;15.60;65.80;;;;;;4972147;28;20026;-76
2024/03/21 12:16:53;;;;;;;6.75;3.85;;;15.70;65.80;;;;;;4973228;28;20401;-75
2024/03/21 12:19:19;;;;;;;7.35;4.28;;;15.70;65.30;;;;;;4972131;28;20050;-75
2024/03/21 12:21:45;;;;;;;6.97;4.22;;;15.60;67.20;;;;;;4972946;28;20107;-74
2024/03/21 12:24:11;;;;;;;10.88;4.28;;;15.70;65.80;;;;;;4972130;28;20027;-75
2024/03/21 12:26:37;;;;;;;7.40;4.28;;;15.70;64.50;;;;;;4973377;28;20033;-76
2024/03/21 12:29:02;;;;;;;9.60;3.78;;;15.70;64.10;;;;;;4971784;28;20027;-75
2024/03/21 12:31:28;;;;;;;7.47;4.45;;;15.80;64.10;;;;;;4983704;28;20037;-75
2024/03/21 12:33:56;;;;;;;8.15;4.40;;;15.70;64.90;;;;;;4984690;28;20041;-75
2024/03/21 12:36:22;;;;;;;6.55;3.92;;;15.80;62.90;;;;;;4995263;28;20037;-74
2024/03/21 12:38:48;;;;;;;6.07;3.30;;;15.80;63.80;;;;;;4995501;28;20022;-75
2024/03/21 12:41:14;;;;;;;7.78;3.70;;;15.90;62.20;;;;;;4995260;28;20069;-75
2024/03/21 12:43:40;;;;;;;6.70;4.65;;;15.90;60.50;;;;;;4996281;28;20022;-75
2024/03/21 12:46:08;;;;;;;13.65;4.20;;;15.90;62.80;;;;;;4995398;28;20029;-75
2024/03/21 12:48:35;;;;;;;7.38;3.97;;;15.80;62.00;;;;;;4996512;28;20053;-75